createdAt,value
2017-09-14T00:02:12.137Z,14.70
2017-09-14T00:04:39.784Z,14.70
2017-09-14T00:07:07.448Z,14.70
2017-09-14T00:09:35.076Z,14.70
2017-09-14T00:12:03.515Z,14.70
2017-09-14T00:14:31.405Z,14.70
2017-09-14T00:16:59.054Z,14.70
2017-09-14T00:19:26.693Z,14.70
2017-09-14T00:21:54.360Z,14.70
2017-09-14T00:24:21.984Z,14.70
2017-09-14T00:26:49.624Z,14.70
2017-09-14T00:29:18.036Z,14.70
2017-09-14T00:31:45.656Z,14.60
2017-09-14T00:34:13.309Z,14.70
2017-09-14T00:36:40.940Z,14.70
2017-09-14T00:39:08.556Z,14.60
2017-09-14T00:41:36.989Z,14.60
2017-09-14T00:44:04.612Z,14.60
2017-09-14T00:46:33.062Z,14.70
2017-09-14T00:49:00.684Z,14.60
2017-09-14T00:51:28.392Z,14.60
2017-09-14T00:53:56.115Z,14.60
2017-09-14T00:56:23.738Z,14.60
2017-09-14T00:58:52.183Z,14.60
2017-09-14T01:01:19.823Z,14.50
2017-09-14T01:03:47.478Z,14.60
2017-09-14T01:06:15.112Z,14.60
2017-09-14T01:08:42.769Z,14.60
2017-09-14T01:11:10.402Z,14.60
2017-09-14T01:13:38.037Z,14.60
2017-09-14T01:16:05.702Z,14.60
2017-09-14T01:18:33.349Z,14.60
2017-09-14T01:21:01.016Z,14.60
2017-09-14T01:23:28.650Z,14.60
2017-09-14T01:25:56.297Z,14.60
2017-09-14T01:28:24.710Z,14.60
2017-09-14T01:30:52.349Z,14.50
2017-09-14T01:33:20.060Z,14.60
2017-09-14T01:35:47.699Z,14.50
2017-09-14T01:38:15.342Z,14.50
2017-09-14T01:40:43.020Z,14.50
2017-09-14T01:43:10.643Z,14.50
2017-09-14T01:45:39.083Z,14.50
2017-09-14T01:48:06.701Z,14.50
2017-09-14T01:50:34.352Z,14.50
2017-09-14T01:53:02.753Z,14.50
2017-09-14T01:55:30.400Z,14.40
2017-09-14T01:57:58.042Z,14.50
2017-09-14T02:00:26.424Z,14.50
2017-09-14T02:02:54.849Z,14.50
2017-09-14T02:05:22.477Z,14.40
2017-09-14T02:07:50.149Z,14.50
2017-09-14T02:10:17.774Z,14.50
2017-09-14T02:12:46.208Z,14.50
2017-09-14T02:15:13.866Z,14.40
2017-09-14T02:17:41.540Z,14.50
2017-09-14T02:20:09.167Z,14.50
2017-09-14T02:22:36.833Z,14.50
2017-09-14T02:25:04.453Z,14.50
2017-09-14T02:27:32.134Z,14.50
2017-09-14T02:30:00.555Z,14.50
2017-09-14T02:32:28.219Z,14.40
2017-09-14T02:34:55.866Z,14.50
2017-09-14T02:37:23.493Z,14.40
2017-09-14T02:39:51.942Z,14.40
2017-09-14T02:42:19.601Z,14.40
2017-09-14T02:44:47.261Z,14.40
2017-09-14T02:47:14.893Z,14.40
2017-09-14T02:49:42.546Z,14.40
2017-09-14T02:52:10.174Z,14.40
2017-09-14T02:54:37.855Z,14.40
2017-09-14T02:57:06.240Z,14.30
2017-09-14T02:59:33.879Z,14.30
2017-09-14T03:02:01.525Z,14.30
2017-09-14T03:04:29.147Z,14.30
2017-09-14T03:06:56.800Z,14.30
2017-09-14T03:09:24.513Z,14.30
2017-09-14T03:11:52.152Z,14.30
2017-09-14T03:14:19.811Z,14.30
2017-09-14T03:16:47.575Z,14.30
2017-09-14T03:19:15.266Z,14.30
2017-09-14T03:21:42.924Z,14.20
2017-09-14T03:24:10.592Z,14.20
2017-09-14T03:26:38.332Z,14.20
2017-09-14T03:29:05.993Z,14.20
2017-09-14T03:31:33.671Z,14.20
2017-09-14T03:34:01.342Z,14.20
2017-09-14T03:36:28.956Z,14.20
2017-09-14T03:38:56.645Z,14.20
2017-09-14T03:41:24.306Z,14.20
2017-09-14T03:43:51.945Z,14.20
2017-09-14T03:46:19.607Z,14.20
2017-09-14T03:48:47.238Z,14.20
2017-09-14T03:51:15.683Z,14.20
2017-09-14T03:53:43.442Z,14.10
2017-09-14T03:56:11.221Z,14.20
2017-09-14T03:58:39.058Z,14.10
2017-09-14T04:01:06.742Z,14.10
2017-09-14T04:03:34.501Z,14.10
2017-09-14T04:06:02.139Z,14.10
2017-09-14T04:08:29.912Z,14.10
2017-09-14T04:10:57.595Z,14.10
2017-09-14T04:13:25.210Z,14.10
2017-09-14T04:15:52.916Z,14.10
2017-09-14T04:18:22.096Z,14.00
2017-09-14T04:20:49.788Z,14.00
2017-09-14T04:23:17.414Z,14.00
2017-09-14T04:25:45.180Z,14.00
2017-09-14T04:28:12.859Z,14.10
2017-09-14T04:30:40.488Z,14.00
2017-09-14T04:33:08.165Z,14.00
2017-09-14T04:35:35.777Z,14.00
2017-09-14T04:38:04.203Z,14.00
2017-09-14T04:40:31.813Z,14.00
2017-09-14T04:43:00.224Z,14.00
2017-09-14T04:45:27.872Z,14.00
2017-09-14T04:47:55.571Z,14.00
2017-09-14T04:50:23.255Z,14.00
2017-09-14T04:52:50.922Z,14.00
2017-09-14T04:55:18.572Z,14.00
2017-09-14T04:57:46.355Z,14.00
2017-09-14T05:00:14.834Z,14.00
2017-09-14T05:02:42.586Z,13.90
2017-09-14T05:05:10.239Z,14.00
2017-09-14T05:07:37.859Z,14.00
2017-09-14T05:10:05.556Z,14.00
2017-09-14T05:12:33.232Z,13.90
2017-09-14T05:15:00.876Z,13.90
2017-09-14T05:17:28.516Z,13.90
2017-09-14T05:19:56.141Z,13.90
2017-09-14T05:22:23.784Z,13.90
2017-09-14T05:24:51.423Z,13.90
2017-09-14T05:27:19.099Z,13.90
2017-09-14T05:29:46.717Z,13.90
2017-09-14T05:32:14.347Z,13.90
2017-09-14T05:34:42.782Z,13.90
2017-09-14T05:37:10.399Z,13.80
2017-09-14T05:39:38.839Z,13.90
2017-09-14T05:42:06.484Z,13.80
2017-09-14T05:44:34.106Z,13.90
2017-09-14T05:47:01.939Z,13.90
2017-09-14T05:49:29.564Z,13.90
2017-09-14T05:51:57.338Z,13.90
2017-09-14T05:54:25.000Z,13.90
2017-09-14T05:56:53.694Z,13.90
2017-09-14T05:59:21.367Z,13.90
2017-09-14T06:01:48.981Z,13.90
2017-09-14T06:04:16.647Z,13.90
2017-09-14T06:06:44.265Z,13.90
2017-09-14T06:09:12.711Z,13.90
2017-09-14T06:11:40.356Z,13.90
2017-09-14T06:14:07.986Z,14.00
2017-09-14T06:16:36.395Z,14.00
2017-09-14T06:19:04.012Z,13.90
2017-09-14T06:21:31.692Z,14.00
2017-09-14T06:24:00.131Z,14.10
2017-09-14T06:26:27.783Z,14.00
2017-09-14T06:28:55.400Z,14.10
2017-09-14T06:31:23.949Z,14.10
2017-09-14T06:33:51.684Z,14.10
2017-09-14T06:36:19.324Z,14.10
2017-09-14T06:38:47.031Z,14.20
2017-09-14T06:41:14.698Z,14.20
2017-09-14T06:43:42.322Z,14.20
2017-09-14T06:46:09.943Z,14.20
2017-09-14T06:48:38.371Z,14.20
2017-09-14T06:51:06.005Z,14.20
2017-09-14T06:53:33.652Z,14.30
2017-09-14T06:56:02.044Z,14.30
2017-09-14T06:58:29.693Z,14.30
2017-09-14T07:00:58.123Z,14.40
2017-09-14T07:03:25.750Z,14.30
2017-09-14T07:05:53.463Z,14.40
2017-09-14T07:08:21.861Z,14.50
2017-09-14T07:10:50.287Z,14.60
2017-09-14T07:13:17.914Z,14.60
2017-09-14T07:15:49.297Z,14.70
2017-09-14T07:18:17.111Z,14.60
2017-09-14T07:20:45.503Z,14.80
2017-09-14T07:23:13.961Z,14.80
2017-09-14T07:25:42.516Z,14.90
2017-09-14T07:28:10.165Z,14.80
2017-09-14T07:30:37.960Z,14.90
2017-09-14T07:33:05.609Z,14.90
2017-09-14T07:35:33.225Z,15.00
2017-09-14T07:38:00.843Z,15.10
2017-09-14T07:40:28.492Z,15.10
2017-09-14T07:42:56.112Z,15.10
2017-09-14T07:45:23.811Z,15.20
2017-09-14T07:47:51.437Z,15.20
2017-09-14T07:50:19.135Z,15.20
2017-09-14T07:52:46.749Z,15.30
2017-09-14T07:55:15.143Z,15.30
2017-09-14T07:57:42.943Z,15.30
2017-09-14T08:00:10.574Z,15.30
2017-09-14T08:02:38.261Z,15.40
2017-09-14T08:05:05.943Z,15.40
2017-09-14T08:07:33.575Z,15.50
2017-09-14T08:10:01.267Z,15.50
2017-09-14T08:12:28.889Z,15.60
2017-09-14T08:14:56.536Z,15.70
2017-09-14T08:17:24.163Z,15.70
2017-09-14T08:19:51.833Z,15.80
2017-09-14T08:22:20.238Z,15.90
2017-09-14T08:24:47.884Z,15.80
2017-09-14T08:27:16.315Z,16.00
2017-09-14T08:29:43.950Z,16.00
2017-09-14T08:32:11.600Z,16.10
2017-09-14T08:34:39.232Z,16.20
2017-09-14T08:37:06.979Z,16.20
2017-09-14T08:39:34.615Z,16.20
2017-09-14T08:42:02.236Z,16.30
2017-09-14T08:44:30.653Z,16.40
2017-09-14T08:46:58.325Z,16.40
2017-09-14T08:49:25.976Z,16.50
2017-09-14T08:51:53.610Z,16.50
2017-09-14T08:54:21.226Z,16.60
2017-09-14T08:56:48.872Z,16.70
2017-09-14T08:59:16.509Z,16.70
2017-09-14T09:01:44.171Z,16.80
2017-09-14T09:04:11.799Z,16.80
2017-09-14T09:06:42.054Z,16.90
2017-09-14T09:09:09.702Z,16.90
2017-09-14T09:11:37.327Z,17.00
2017-09-14T09:14:05.037Z,17.00
2017-09-14T09:16:34.910Z,17.10
2017-09-14T09:19:02.750Z,17.20
2017-09-14T09:21:30.378Z,17.30
2017-09-14T09:23:58.042Z,17.40
2017-09-14T09:26:25.677Z,17.50
2017-09-14T09:28:54.238Z,17.60
2017-09-14T09:31:23.413Z,17.70
2017-09-14T09:33:51.068Z,17.70
2017-09-14T09:36:18.986Z,17.80
2017-09-14T09:38:46.625Z,17.90
2017-09-14T09:41:14.280Z,18.00
2017-09-14T09:43:41.944Z,18.10
2017-09-14T09:46:10.386Z,18.20
2017-09-14T09:48:38.883Z,18.30
2017-09-14T09:51:06.542Z,18.30
2017-09-14T09:53:34.190Z,18.40
2017-09-14T09:56:01.805Z,18.40
2017-09-14T09:58:29.470Z,18.40
2017-09-14T10:00:58.026Z,18.40
2017-09-14T10:03:25.777Z,18.30
2017-09-14T10:05:53.434Z,18.40
2017-09-14T10:08:21.056Z,18.40
2017-09-14T10:10:48.688Z,18.30
2017-09-14T10:13:16.364Z,18.30
2017-09-14T10:15:44.748Z,18.40
2017-09-14T10:18:13.142Z,18.50
2017-09-14T10:20:40.840Z,18.40
2017-09-14T10:23:08.470Z,18.50
2017-09-14T10:25:36.166Z,18.50
2017-09-14T10:28:03.823Z,18.60
2017-09-14T10:30:31.446Z,18.60
2017-09-14T10:32:59.869Z,18.70
2017-09-14T10:35:27.534Z,18.70
2017-09-14T10:37:55.156Z,18.80
2017-09-14T10:40:22.783Z,18.80
2017-09-14T10:42:50.440Z,18.80
2017-09-14T10:45:18.074Z,18.80
2017-09-14T10:47:45.720Z,18.80
2017-09-14T10:50:13.351Z,18.80
2017-09-14T10:52:41.776Z,18.90
2017-09-14T10:55:09.423Z,18.80
2017-09-14T10:57:37.076Z,18.90
2017-09-14T11:00:04.702Z,18.90
2017-09-14T11:02:33.093Z,19.00
2017-09-14T11:05:01.505Z,19.00
2017-09-14T11:07:29.138Z,18.90
2017-09-14T11:09:56.975Z,19.00
2017-09-14T11:12:24.615Z,19.10
2017-09-14T11:14:52.225Z,19.20
2017-09-14T11:17:20.642Z,19.30
2017-09-14T11:19:48.289Z,19.30
2017-09-14T11:22:15.976Z,19.50
2017-09-14T11:24:43.593Z,19.60
2017-09-14T11:27:11.212Z,19.70
2017-09-14T11:29:38.872Z,19.80
2017-09-14T11:32:06.568Z,19.90
2017-09-14T11:34:34.996Z,20.10
2017-09-14T11:37:02.631Z,20.00
2017-09-14T11:39:30.261Z,20.10
2017-09-14T11:41:58.673Z,20.30
2017-09-14T11:44:26.366Z,20.20
2017-09-14T11:46:54.013Z,20.40
2017-09-14T11:49:21.628Z,20.50
2017-09-14T11:51:50.050Z,20.60
2017-09-14T11:54:17.699Z,20.60
2017-09-14T11:56:45.359Z,20.70
2017-09-14T11:59:13.059Z,20.80
2017-09-14T12:01:40.727Z,20.90
2017-09-14T12:04:08.363Z,21.00
2017-09-14T12:06:36.037Z,21.10
2017-09-14T12:09:03.674Z,21.20
2017-09-14T12:11:31.331Z,21.30
2017-09-14T12:13:58.974Z,21.30
2017-09-14T12:16:27.391Z,21.50
2017-09-14T12:18:55.046Z,21.50
2017-09-14T12:21:22.684Z,21.60
2017-09-14T12:23:50.317Z,21.70
2017-09-14T12:26:17.973Z,21.80
2017-09-14T12:28:45.593Z,21.90
2017-09-14T12:31:13.348Z,21.90
2017-09-14T12:33:41.014Z,22.00
2017-09-14T12:36:08.713Z,22.00
2017-09-14T12:38:36.372Z,22.10
2017-09-14T12:41:04.079Z,22.20
2017-09-14T12:43:31.704Z,22.20
2017-09-14T12:45:59.367Z,22.30
2017-09-14T12:48:27.019Z,22.30
2017-09-14T12:53:15.433Z,22.40
2017-09-14T12:55:43.235Z,22.40
2017-09-14T12:58:10.889Z,22.40
2017-09-14T13:00:38.496Z,22.40
2017-09-14T13:03:07.340Z,22.30
2017-09-14T13:05:34.977Z,22.30
2017-09-14T13:08:02.974Z,22.20
2017-09-14T13:10:30.941Z,22.20
2017-09-14T13:12:58.584Z,22.20
2017-09-14T13:15:26.243Z,22.10
2017-09-14T13:17:54.031Z,22.10
2017-09-14T13:20:22.100Z,22.10
2017-09-14T13:22:49.899Z,22.20
2017-09-14T13:25:17.550Z,22.20
2017-09-14T13:27:45.295Z,22.20
2017-09-14T13:30:12.943Z,22.30
2017-09-14T13:32:40.689Z,22.30
2017-09-14T13:35:08.382Z,22.20
2017-09-14T13:37:36.006Z,22.20
2017-09-14T13:40:03.723Z,22.10
2017-09-14T13:42:31.355Z,22.10
2017-09-14T13:44:58.965Z,22.10
2017-09-14T13:47:27.402Z,22.10
2017-09-14T13:49:55.065Z,22.10
2017-09-14T13:52:22.957Z,22.10
2017-09-14T13:54:51.470Z,22.20
2017-09-14T13:57:20.043Z,22.20
2017-09-14T13:59:48.905Z,22.20
2017-09-14T14:02:16.684Z,22.20
2017-09-14T14:04:44.523Z,22.20
2017-09-14T14:07:12.303Z,22.20
2017-09-14T14:09:39.946Z,22.20
2017-09-14T14:12:07.821Z,22.10
2017-09-14T14:14:35.701Z,22.10
2017-09-14T14:17:03.453Z,22.00
2017-09-14T14:19:31.132Z,21.90
2017-09-14T14:21:58.929Z,21.90
2017-09-14T14:24:27.657Z,21.70
2017-09-14T14:26:55.428Z,21.70
2017-09-14T14:29:23.300Z,21.70
2017-09-14T14:31:51.075Z,21.60
2017-09-14T14:34:18.774Z,21.60
2017-09-14T14:36:47.305Z,21.50
2017-09-14T14:39:15.180Z,21.50
2017-09-14T14:41:42.855Z,21.40
2017-09-14T14:44:10.595Z,21.40
2017-09-14T14:46:38.370Z,21.30
2017-09-14T14:49:06.854Z,21.30
2017-09-14T14:51:34.523Z,21.20
2017-09-14T14:54:02.172Z,21.20
2017-09-14T14:56:29.821Z,21.20
2017-09-14T14:58:57.486Z,21.20
2017-09-14T15:01:25.122Z,21.10
2017-09-14T15:03:52.792Z,21.10
2017-09-14T15:06:20.475Z,21.00
2017-09-14T15:08:48.283Z,21.00
2017-09-14T15:11:16.837Z,20.90
2017-09-14T15:13:44.482Z,20.90
2017-09-14T15:16:12.112Z,20.90
2017-09-14T15:18:39.790Z,20.80
2017-09-14T15:21:07.423Z,20.80
2017-09-14T15:23:35.088Z,20.80
2017-09-14T15:26:02.796Z,20.70
2017-09-14T15:28:30.434Z,20.60
2017-09-14T15:30:58.076Z,20.50
2017-09-14T15:33:25.713Z,20.50
2017-09-14T15:35:54.358Z,20.30
2017-09-14T15:38:21.972Z,20.30
2017-09-14T15:40:56.132Z,20.20
2017-09-14T15:43:29.440Z,20.10
2017-09-14T15:45:57.097Z,20.00
2017-09-14T15:48:30.340Z,20.00
2017-09-14T15:51:03.752Z,19.90
2017-09-14T15:53:31.377Z,19.80
2017-09-14T15:55:59.018Z,19.70
2017-09-14T15:58:26.764Z,19.70
2017-09-14T16:00:54.400Z,19.60
2017-09-14T16:03:22.089Z,19.50
2017-09-14T16:05:49.854Z,19.50
2017-09-14T16:08:17.742Z,19.40
2017-09-14T16:10:46.295Z,19.30
2017-09-14T16:13:14.186Z,19.30
2017-09-14T16:15:42.011Z,19.30
2017-09-14T16:18:09.642Z,19.30
2017-09-14T16:20:38.301Z,19.20
2017-09-14T16:23:05.924Z,19.20
2017-09-14T16:25:33.561Z,19.20
2017-09-14T16:28:01.219Z,19.20
2017-09-14T16:30:29.618Z,19.10
2017-09-14T16:32:57.276Z,19.10
2017-09-14T16:35:24.986Z,19.10
2017-09-14T16:37:52.642Z,19.10
2017-09-14T16:40:20.273Z,19.00
2017-09-14T16:42:47.910Z,19.00
2017-09-14T16:45:15.563Z,19.00
2017-09-14T16:47:44.098Z,18.90
2017-09-14T16:50:11.741Z,18.90
2017-09-14T16:52:39.446Z,18.90
2017-09-14T16:55:07.207Z,18.80
2017-09-14T16:57:34.836Z,18.80
2017-09-14T17:00:02.615Z,18.70
2017-09-14T17:02:30.262Z,18.70
2017-09-14T17:04:57.885Z,18.60
2017-09-14T17:07:26.301Z,18.50
2017-09-14T17:09:53.921Z,18.40
2017-09-14T17:12:22.456Z,18.30
2017-09-14T17:14:50.073Z,18.30
2017-09-14T17:17:18.502Z,18.20
2017-09-14T17:19:46.144Z,18.20
2017-09-14T17:22:14.394Z,18.20
2017-09-14T17:24:42.197Z,18.10
2017-09-14T17:27:10.066Z,18.00
2017-09-14T17:29:37.931Z,18.00
2017-09-14T17:32:05.811Z,17.90
2017-09-14T17:34:33.678Z,17.90
2017-09-14T17:37:01.468Z,17.80
2017-09-14T17:39:29.315Z,17.80
2017-09-14T17:41:57.247Z,17.70
2017-09-14T17:44:25.051Z,17.70
2017-09-14T17:46:53.736Z,17.60
2017-09-14T17:49:22.425Z,17.60
2017-09-14T17:51:50.251Z,17.50
2017-09-14T17:54:18.465Z,17.50
2017-09-14T17:56:46.333Z,17.50
2017-09-14T17:59:14.195Z,17.50
2017-09-14T18:01:42.158Z,17.40
2017-09-14T18:04:10.027Z,17.40
2017-09-14T18:06:37.896Z,17.40
2017-09-14T18:09:05.537Z,17.30
2017-09-14T18:11:33.179Z,17.30
2017-09-14T18:14:01.087Z,17.30
2017-09-14T18:16:29.160Z,17.20
2017-09-14T18:18:56.810Z,17.20
2017-09-14T18:21:24.513Z,17.20
2017-09-14T18:23:52.956Z,17.10
2017-09-14T18:26:20.585Z,17.10
2017-09-14T18:28:48.385Z,17.10
2017-09-14T18:31:16.119Z,17.10
2017-09-14T18:33:43.783Z,17.00
2017-09-14T18:36:11.601Z,17.00
2017-09-14T18:38:39.236Z,16.90
2017-09-14T18:41:06.860Z,16.90
2017-09-14T18:43:34.546Z,16.90
2017-09-14T18:46:02.201Z,16.90
2017-09-14T18:48:29.838Z,16.90
2017-09-14T18:50:57.540Z,16.90
2017-09-14T18:53:25.177Z,16.90
2017-09-14T18:55:52.824Z,16.90
2017-09-14T18:58:20.516Z,17.00
2017-09-14T19:00:48.161Z,16.90
2017-09-14T19:03:15.796Z,16.90
2017-09-14T19:05:44.223Z,16.90
2017-09-14T19:08:12.022Z,16.90
2017-09-14T19:10:39.972Z,16.90
2017-09-14T19:13:08.655Z,16.90
2017-09-14T19:15:36.526Z,16.90
2017-09-14T19:18:04.388Z,16.90
2017-09-14T19:20:32.253Z,16.90
2017-09-14T19:23:00.130Z,16.90
2017-09-14T19:25:27.996Z,16.90
2017-09-14T19:27:55.854Z,16.90
2017-09-14T19:30:23.821Z,16.90
2017-09-14T19:32:51.689Z,16.90
2017-09-14T19:35:19.461Z,16.90
2017-09-14T19:37:47.322Z,16.80
2017-09-14T19:40:14.963Z,16.80
2017-09-14T19:42:42.585Z,16.80
2017-09-14T19:45:11.041Z,16.70
2017-09-14T19:47:38.771Z,16.70
2017-09-14T19:50:06.537Z,16.70
2017-09-14T19:52:34.159Z,16.70
2017-09-14T19:55:04.161Z,16.70
2017-09-14T19:57:34.135Z,16.70
2017-09-14T20:00:04.777Z,16.70
2017-09-14T20:02:34.092Z,16.70
2017-09-14T20:05:05.472Z,16.70
2017-09-14T20:07:33.301Z,16.60
2017-09-14T20:10:01.152Z,16.60
2017-09-14T20:12:29.031Z,16.60
2017-09-14T20:14:57.414Z,16.60
2017-09-14T20:17:25.278Z,16.60
2017-09-14T20:19:53.145Z,16.60
2017-09-14T20:22:21.010Z,16.60
2017-09-14T20:24:48.871Z,16.60
2017-09-14T20:27:17.147Z,16.60
2017-09-14T20:29:45.015Z,16.50
2017-09-14T20:32:12.880Z,16.50
2017-09-14T20:34:40.748Z,16.50
2017-09-14T20:37:08.618Z,16.50
2017-09-14T20:39:36.698Z,16.50
2017-09-14T20:42:04.661Z,16.50
2017-09-14T20:44:32.522Z,16.50
2017-09-14T20:47:00.402Z,16.50
2017-09-14T20:49:28.258Z,16.40
2017-09-14T20:51:56.123Z,16.40
2017-09-14T20:54:23.993Z,16.40
2017-09-14T20:56:52.683Z,16.40
2017-09-14T20:59:22.183Z,16.40
2017-09-14T21:01:49.963Z,16.40
2017-09-14T21:04:17.817Z,16.40
2017-09-14T21:06:45.453Z,16.40
2017-09-14T21:09:13.104Z,16.40
2017-09-14T21:11:40.738Z,16.30
2017-09-14T21:14:08.392Z,16.30
2017-09-14T21:16:36.065Z,16.30
2017-09-14T21:19:03.777Z,16.40
2017-09-14T21:21:31.389Z,16.30
2017-09-14T21:23:59.040Z,16.30
2017-09-14T21:26:27.490Z,16.30
2017-09-14T21:28:55.146Z,16.30
2017-09-14T21:31:22.779Z,16.30
2017-09-14T21:33:50.453Z,16.30
2017-09-14T21:36:18.107Z,16.30
2017-09-14T21:38:45.776Z,16.30
2017-09-14T21:41:13.430Z,16.30
2017-09-14T21:43:41.145Z,16.30
2017-09-14T21:46:09.554Z,16.30
2017-09-14T21:48:37.202Z,16.20
2017-09-14T21:51:04.814Z,16.20
2017-09-14T21:53:32.476Z,16.30
2017-09-14T21:56:00.238Z,16.20
2017-09-14T21:58:27.913Z,16.20
2017-09-14T22:00:55.588Z,16.20
2017-09-14T22:03:23.247Z,16.20
2017-09-14T22:05:51.653Z,16.20
2017-09-14T22:08:20.036Z,16.20
2017-09-14T22:10:47.695Z,16.10
2017-09-14T22:13:16.220Z,16.20
2017-09-14T22:15:43.851Z,16.10
2017-09-14T22:18:11.497Z,16.20
2017-09-14T22:20:39.892Z,16.10
2017-09-14T22:23:07.508Z,16.10
2017-09-14T22:25:35.245Z,16.10
2017-09-14T22:28:02.930Z,16.10
2017-09-14T22:30:30.562Z,16.20
2017-09-14T22:32:58.254Z,16.10
2017-09-14T22:35:25.882Z,16.10
2017-09-14T22:37:53.497Z,16.10
2017-09-14T22:40:21.922Z,16.10
2017-09-14T22:42:49.546Z,16.00
2017-09-14T22:45:17.974Z,16.00
2017-09-14T22:47:45.639Z,16.00
2017-09-14T22:50:13.278Z,16.00
2017-09-14T22:52:40.983Z,16.10
2017-09-14T22:55:08.728Z,16.10
2017-09-14T22:57:36.354Z,16.10
2017-09-14T23:00:04.019Z,16.00
2017-09-14T23:02:31.649Z,16.10
2017-09-14T23:05:00.045Z,16.00
2017-09-14T23:07:27.705Z,16.00
2017-09-14T23:09:56.084Z,16.00
2017-09-14T23:12:24.469Z,16.00
2017-09-14T23:14:52.121Z,15.90
2017-09-14T23:17:20.513Z,16.00
2017-09-14T23:19:48.226Z,15.90
2017-09-14T23:22:15.902Z,15.90
2017-09-14T23:24:43.534Z,15.90
2017-09-14T23:27:11.173Z,15.90
2017-09-14T23:29:38.858Z,15.90
2017-09-14T23:32:06.489Z,15.90
2017-09-14T23:34:34.120Z,15.90
2017-09-14T23:37:02.555Z,15.80
2017-09-14T23:39:30.179Z,15.80
2017-09-14T23:41:57.837Z,15.80
2017-09-14T23:44:25.492Z,15.80
2017-09-14T23:46:53.892Z,15.80
2017-09-14T23:49:21.567Z,15.80
2017-09-14T23:51:49.182Z,15.80
2017-09-14T23:54:16.824Z,15.80
2017-09-14T23:56:44.507Z,15.80
2017-09-14T23:59:12.138Z,15.80
